Time;durP1;ratioP1;P1;durP2;ratioP2;P2;SDS_P1;SDS_P2;PMS_P1;PMS_P2;Temp;Humidity;BMP_temperature;BMP_pressure;BME280_temperature;BME280_humidity;BME280_pressure;Samples;Min_cycle;Max_cycle;Signal;HPM_P1;HPM_P2
2022/06/05 00:01:29;;;;;;;19.10;7.13;;;10.40;78.10;;;;;;4972568;28;20512;-78
2022/06/05 00:04:18;;;;;;;15.05;7.32;;;10.30;78.30;;;;;;4964403;28;20304;-78
2022/06/05 00:06:54;;;;;;;15.90;7.65;;;10.30;78.50;;;;;;4966421;28;20050;-79
2022/06/05 00:09:55;;;;;;;13.60;7.78;;;10.30;78.60;;;;;;4955600;28;20062;-79
2022/06/05 00:12:33;;;;;;;16.60;8.55;;;10.30;78.70;;;;;;4954570;28;20500;-78
2022/06/05 00:15:01;;;;;;;18.65;8.57;;;10.40;78.70;;;;;;4965633;28;20480;-78
2022/06/05 00:17:29;;;;;;;16.25;8.80;;;10.30;78.70;;;;;;4975565;28;20055;-78
2022/06/05 00:19:57;;;;;;;20.98;8.70;;;10.30;78.80;;;;;;4940969;28;20047;-78
2022/06/05 00:22:24;;;;;;;13.48;8.18;;;10.30;78.90;;;;;;4972514;28;20051;-77
2022/06/05 00:24:52;;;;;;;22.10;10.15;;;10.30;79.00;;;;;;4955667;28;20394;-78
2022/06/05 00:27:38;;;;;;;18.83;10.00;;;10.30;79.30;;;;;;4954166;28;20389;-78
2022/06/05 00:30:11;;;;;;;18.48;10.00;;;10.30;79.40;;;;;;4967887;28;20058;-78
2022/06/05 00:32:55;;;;;;;19.35;10.30;;;10.30;79.50;;;;;;4955391;28;20049;-78
2022/06/05 00:35:30;;;;;;;16.58;9.52;;;10.30;79.60;;;;;;4954395;28;20065;-78
2022/06/05 00:38:33;;;;;;;17.50;10.23;;;10.30;79.60;;;;;;4954877;28;20496;-78
2022/06/05 00:41:11;;;;;;;15.18;10.10;;;10.30;79.70;;;;;;4952628;28;20408;-79
2022/06/05 00:43:40;;;;;;;18.85;10.77;;;10.30;80.00;;;;;;4938381;28;20389;-77
2022/06/05 00:46:09;;;;;;;15.68;9.57;;;10.30;80.00;;;;;;4959480;28;20043;-78
2022/06/05 00:48:39;;;;;;;16.92;10.13;;;10.30;80.20;;;;;;4963072;28;20058;-78
2022/06/05 00:51:06;;;;;;;14.02;9.93;;;10.30;80.30;;;;;;4970776;28;20058;-78
2022/06/05 00:53:37;;;;;;;18.00;10.13;;;10.30;80.30;;;;;;4974521;28;20042;-78
2022/06/05 00:56:10;;;;;;;14.38;9.63;;;10.20;80.30;;;;;;4959127;28;20039;-78
2022/06/05 00:58:41;;;;;;;14.75;9.60;;;10.30;80.30;;;;;;4976047;28;20054;-78
2022/06/05 01:01:09;;;;;;;15.25;10.18;;;10.20;80.30;;;;;;4976288;28;20370;-78
2022/06/05 01:03:37;;;;;;;14.10;9.50;;;10.20;80.40;;;;;;4958980;28;20058;-78
2022/06/05 01:06:05;;;;;;;15.50;10.20;;;10.20;80.40;;;;;;4976447;28;20050;-78
2022/06/05 01:08:33;;;;;;;13.23;9.27;;;10.20;80.50;;;;;;4958150;28;20046;-78
2022/06/05 01:11:28;;;;;;;15.05;9.35;;;10.20;80.50;;;;;;4973758;28;20047;-78
2022/06/05 01:14:13;;;;;;;21.17;10.35;;;10.20;80.60;;;;;;4960827;28;20042;-78
2022/06/05 01:17:03;;;;;;;17.95;10.32;;;10.20;80.60;;;;;;4970788;28;20500;-78
2022/06/05 01:19:41;;;;;;;21.42;10.82;;;10.20;80.60;;;;;;4970122;28;20047;-77
2022/06/05 01:22:24;;;;;;;25.05;10.95;;;10.20;80.70;;;;;;4975143;28;20385;-78
2022/06/05 01:25:16;;;;;;;18.92;11.00;;;10.20;80.70;;;;;;4958295;28;20062;-79
2022/06/05 01:27:51;;;;;;;20.13;12.30;;;10.20;80.70;;;;;;4957380;28;20035;-79
2022/06/05 01:30:22;;;;;;;21.35;12.57;;;10.20;80.70;;;;;;4974542;28;20059;-79
2022/06/05 01:33:17;;;;;;;18.60;10.90;;;10.10;80.80;;;;;;4972524;28;20043;-79
2022/06/05 01:36:38;;;;;;;20.15;12.32;;;10.10;80.90;;;;;;4962035;28;20478;-79
2022/06/05 01:39:30;;;;;;;15.52;10.70;;;10.10;80.90;;;;;;4938127;29;20066;-79
2022/06/05 01:42:08;;;;;;;17.00;11.20;;;10.10;80.90;;;;;;4934117;29;20390;-77
2022/06/05 01:44:39;;;;;;;20.67;11.27;;;10.10;80.90;;;;;;4934813;29;20064;-77
2022/06/05 01:47:14;;;;;;;18.70;12.20;;;10.10;80.90;;;;;;4930739;29;20047;-77
2022/06/05 01:49:59;;;;;;;16.15;12.15;;;10.10;80.90;;;;;;4953053;28;20540;-76
2022/06/05 01:52:35;;;;;;;18.60;10.60;;;10.10;80.90;;;;;;4937814;29;20106;-77
2022/06/05 01:55:15;;;;;;;17.48;11.45;;;10.10;80.90;;;;;;4937819;29;20074;-77
2022/06/05 01:57:43;;;;;;;18.90;11.57;;;10.10;80.90;;;;;;4952927;29;20059;-77
2022/06/05 02:00:17;;;;;;;16.10;10.50;;;10.10;81.00;;;;;;4951852;29;20046;-77
2022/06/05 02:03:07;;;;;;;23.70;10.80;;;10.10;81.00;;;;;;4953148;29;20103;-74
2022/06/05 02:05:53;;;;;;;21.25;11.57;;;10.00;81.20;;;;;;4933695;29;20103;-77
2022/06/05 02:08:45;;;;;;;21.25;11.93;;;10.00;81.40;;;;;;4931979;29;20450;-77
2022/06/05 02:11:22;;;;;;;17.52;12.15;;;9.90;81.60;;;;;;4973419;28;20058;-77
2022/06/05 02:13:54;;;;;;;25.00;10.85;;;9.90;81.70;;;;;;4957660;28;20053;-77
2022/06/05 02:16:24;;;;;;;16.83;11.85;;;9.80;81.70;;;;;;4974691;28;20397;-77
2022/06/05 02:18:52;;;;;;;16.20;9.95;;;9.80;81.90;;;;;;4942239;28;20515;-77
2022/06/05 02:21:21;;;;;;;27.10;11.27;;;9.80;82.00;;;;;;4977890;28;20066;-77
2022/06/05 02:23:48;;;;;;;15.70;10.50;;;9.80;82.10;;;;;;4941364;28;20072;-77
2022/06/05 02:26:16;;;;;;;23.08;11.15;;;9.80;82.20;;;;;;4957174;28;20051;-77
2022/06/05 02:28:44;;;;;;;15.48;11.18;;;9.80;82.30;;;;;;4974223;28;20043;-76
2022/06/05 02:31:22;;;;;;;19.60;11.23;;;9.80;82.40;;;;;;4967502;28;20050;-77
2022/06/05 02:34:18;;;;;;;20.25;11.93;;;9.80;82.50;;;;;;4974447;28;20062;-77
2022/06/05 02:36:52;;;;;;;25.75;13.23;;;9.70;82.60;;;;;;4974769;28;20055;-77
2022/06/05 02:39:53;;;;;;;24.20;13.68;;;9.70;82.50;;;;;;4974754;28;20051;-77
2022/06/05 02:42:33;;;;;;;33.92;13.43;;;9.70;82.80;;;;;;4956691;28;20046;-77
2022/06/05 02:45:07;;;;;;;20.05;13.95;;;9.60;82.90;;;;;;4975659;28;20047;-77
2022/06/05 02:47:37;;;;;;;;;;;9.60;82.90;;;;;;4977704;28;20050;-77
2022/06/05 02:50:11;;;;;;;22.02;12.90;;;9.60;83.00;;;;;;4956359;28;19929;-77
2022/06/05 02:52:39;;;;;;;;;;;9.60;82.90;;;;;;4974932;28;20504;-77
2022/06/05 02:55:10;;;;;;;25.20;14.05;;;9.60;83.00;;;;;;4956311;28;19922;-77
2022/06/05 02:57:38;;;;;;;32.78;15.25;;;9.60;83.00;;;;;;4973991;28;20039;-77
2022/06/05 03:00:11;;;;;;;27.13;14.75;;;9.60;83.00;;;;;;4974061;28;20088;-76
2022/06/05 03:05:33;;;;;;;;;;;9.70;83.30;;;;;;4973095;28;20508;-76
2022/06/05 03:08:00;;;;;;;22.33;14.35;;;9.60;83.20;;;;;;4973853;28;19933;-77
2022/06/05 03:10:28;;;;;;;22.85;13.02;;;9.60;83.10;;;;;;4973275;28;20050;-77
2022/06/05 03:12:56;;;;;;;23.08;14.18;;;9.70;83.20;;;;;;4973742;28;20050;-77
2022/06/05 03:15:24;;;;;;;21.45;12.70;;;9.70;83.20;;;;;;4972936;28;20499;-77
2022/06/05 03:17:51;;;;;;;21.85;12.63;;;9.70;83.30;;;;;;4974051;28;20050;-77
2022/06/05 03:20:19;;;;;;;24.80;12.65;;;9.70;83.30;;;;;;4955936;28;20424;-77
2022/06/05 03:22:47;;;;;;;17.30;11.82;;;9.70;83.30;;;;;;4956021;28;20058;-76
2022/06/05 03:25:20;;;;;;;24.83;12.38;;;9.70;83.30;;;;;;4955420;28;20059;-77
2022/06/05 03:27:54;;;;;;;20.45;11.82;;;9.70;83.30;;;;;;4966934;28;20400;-77
2022/06/05 03:30:22;;;;;;;23.65;12.35;;;9.70;83.30;;;;;;4952229;28;20066;-77
2022/06/05 03:32:50;;;;;;;21.85;10.65;;;9.70;83.30;;;;;;4954223;29;20059;-77
2022/06/05 03:35:18;;;;;;;23.20;11.10;;;9.80;83.20;;;;;;4953681;29;20641;-77
2022/06/05 03:37:45;;;;;;;15.90;11.02;;;9.70;83.30;;;;;;4936106;29;20497;-77
2022/06/05 03:40:15;;;;;;;18.00;10.52;;;9.80;83.30;;;;;;4952365;29;20401;-77
2022/06/05 03:42:43;;;;;;;16.23;10.63;;;9.80;83.30;;;;;;4952712;29;20051;-77
2022/06/05 03:45:13;;;;;;;20.13;10.68;;;9.80;83.30;;;;;;4953736;29;20402;-76
2022/06/05 03:47:41;;;;;;;16.65;10.50;;;9.80;83.30;;;;;;4953686;28;20058;-77
2022/06/05 03:50:10;;;;;;;16.65;10.55;;;9.70;83.30;;;;;;4954274;29;20078;-77
2022/06/05 03:52:38;;;;;;;16.70;10.25;;;9.70;83.40;;;;;;4952526;29;20409;-77
2022/06/05 03:55:06;;;;;;;19.98;10.05;;;9.80;83.40;;;;;;4953270;29;20058;-76
2022/06/05 03:57:34;;;;;;;18.33;10.70;;;9.80;83.50;;;;;;4953664;28;20428;-76
2022/06/05 04:00:04;;;;;;;18.65;10.75;;;9.80;83.50;;;;;;4953136;28;20399;-76
2022/06/05 04:02:39;;;;;;;17.50;10.20;;;9.70;83.60;;;;;;4953276;28;20063;-76
2022/06/05 04:05:09;;;;;;;17.85;10.18;;;9.70;83.60;;;;;;4952607;29;20050;-76
2022/06/05 04:07:36;;;;;;;22.38;10.23;;;9.70;83.60;;;;;;4953801;29;20047;-77
2022/06/05 04:10:04;;;;;;;22.08;11.07;;;9.70;83.80;;;;;;4936815;29;20051;-77
2022/06/05 04:12:32;;;;;;;20.13;10.70;;;9.70;83.80;;;;;;4952788;29;20059;-77
2022/06/05 04:15:00;;;;;;;21.98;11.45;;;9.70;83.90;;;;;;4951426;29;20055;-76
2022/06/05 04:17:28;;;;;;;19.52;11.30;;;9.70;84.00;;;;;;4952890;29;20067;-77
2022/06/05 04:19:55;;;;;;;21.00;11.45;;;9.60;84.10;;;;;;4953382;29;20047;-76
2022/06/05 04:22:23;;;;;;;23.20;11.90;;;9.60;84.20;;;;;;4953199;29;20589;-75
2022/06/05 04:24:51;;;;;;;19.27;11.77;;;9.60;84.30;;;;;;4952818;28;20058;-74
2022/06/05 04:27:19;;;;;;;19.67;10.52;;;9.50;84.40;;;;;;4953333;28;20051;-74
2022/06/05 04:29:46;;;;;;;18.75;10.05;;;9.50;84.60;;;;;;4965396;28;20054;-75
2022/06/05 04:32:14;;;;;;;16.70;10.95;;;9.50;84.60;;;;;;4975945;28;20389;-75
2022/06/05 04:34:42;;;;;;;13.52;10.85;;;9.50;84.70;;;;;;4975684;28;20058;-76
2022/06/05 04:37:09;;;;;;;16.65;10.82;;;9.40;84.90;;;;;;4974689;28;20050;-76
2022/06/05 04:39:37;;;;;;;17.52;10.65;;;9.50;85.00;;;;;;4975361;28;20047;-75
2022/06/05 04:42:05;;;;;;;19.20;10.88;;;9.40;85.10;;;;;;4976139;28;20429;-76
2022/06/05 04:44:33;;;;;;;19.02;11.52;;;9.40;85.10;;;;;;4975576;28;20063;-76
2022/06/05 04:47:00;;;;;;;20.13;11.27;;;9.40;85.10;;;;;;4976467;28;20043;-76
2022/06/05 04:49:28;;;;;;;20.67;12.05;;;9.40;85.20;;;;;;4976247;28;20531;-76
2022/06/05 04:51:56;;;;;;;21.90;11.68;;;9.40;85.20;;;;;;4976870;28;20046;-76
2022/06/05 04:54:23;;;;;;;20.60;12.40;;;9.50;85.30;;;;;;4959046;28;20042;-76
2022/06/05 04:56:51;;;;;;;22.48;13.40;;;9.50;85.40;;;;;;4976052;28;20042;-76
2022/06/05 04:59:19;;;;;;;20.38;12.50;;;9.50;85.30;;;;;;4959125;28;20050;-77
2022/06/05 05:01:46;;;;;;;26.88;13.70;;;9.50;85.50;;;;;;4976273;28;20043;-77
2022/06/05 05:04:15;;;;;;;17.75;12.93;;;9.50;85.50;;;;;;4942343;28;20519;-78
2022/06/05 05:06:43;;;;;;;25.88;14.27;;;9.50;85.50;;;;;;4976151;28;20050;-78
2022/06/05 05:09:11;;;;;;;21.80;12.57;;;9.50;85.50;;;;;;4976034;28;20050;-78
2022/06/05 05:11:40;;;;;;;21.67;13.27;;;9.60;85.50;;;;;;4942748;28;20043;-77
2022/06/05 05:14:09;;;;;;;26.48;13.55;;;9.60;85.60;;;;;;4975447;28;20051;-77
2022/06/05 05:16:37;;;;;;;24.10;13.70;;;9.60;85.60;;;;;;4975898;28;20046;-77
2022/06/05 05:19:07;;;;;;;28.15;15.23;;;9.60;85.70;;;;;;4975913;28;20400;-78
2022/06/05 05:21:36;;;;;;;27.13;14.25;;;9.60;85.70;;;;;;4975517;28;20047;-77
2022/06/05 05:24:04;;;;;;;25.45;15.50;;;9.60;85.70;;;;;;4975569;28;20047;-78
2022/06/05 05:26:33;;;;;;;25.85;15.32;;;9.50;85.80;;;;;;4975899;28;20616;-77
2022/06/05 05:29:02;;;;;;;28.90;15.00;;;9.50;85.80;;;;;;4958498;28;21107;-75
2022/06/05 05:31:36;;;;;;;28.92;14.95;;;9.50;85.90;;;;;;4975919;28;20510;-75
2022/06/05 05:34:04;;;;;;;29.55;15.50;;;9.50;86.00;;;;;;4975691;28;20050;-76
2022/06/05 05:36:33;;;;;;;27.45;15.18;;;9.50;86.10;;;;;;4974181;28;20046;-76
2022/06/05 05:42:08;;;;;;;25.35;15.27;;;9.50;86.10;;;;;;4958441;28;20054;-76
2022/06/05 05:44:36;;;;;;;31.75;14.63;;;9.50;86.20;;;;;;4957680;28;20058;-77
2022/06/05 05:47:06;;;;;;;25.05;15.35;;;9.50;86.20;;;;;;4975131;28;20050;-77
2022/06/05 05:49:34;;;;;;;26.27;15.52;;;9.50;86.10;;;;;;4974386;28;20070;-77
2022/06/05 05:52:03;;;;;;;34.25;15.73;;;9.50;86.10;;;;;;4957894;28;20516;-77
2022/06/05 05:54:35;;;;;;;25.48;15.52;;;9.50;86.20;;;;;;4975144;28;20050;-78
2022/06/05 05:57:04;;;;;;;25.98;16.75;;;9.40;86.20;;;;;;4942203;28;20058;-78
2022/06/05 05:59:32;;;;;;;24.65;15.07;;;9.50;86.20;;;;;;4974578;28;20057;-78
2022/06/05 06:01:59;;;;;;;23.98;15.00;;;9.50;86.40;;;;;;4957607;28;20420;-77
2022/06/05 06:04:27;;;;;;;22.20;14.52;;;9.50;86.40;;;;;;4974880;28;20070;-76
2022/06/05 06:06:55;;;;;;;25.73;15.32;;;9.50;86.30;;;;;;4957437;28;20054;-76
2022/06/05 06:09:23;;;;;;;24.38;15.98;;;9.50;86.30;;;;;;4957720;28;20070;-75
2022/06/05 06:11:50;;;;;;;22.77;14.98;;;9.50;86.30;;;;;;4974412;28;20050;-76
2022/06/05 06:14:18;;;;;;;23.10;15.38;;;9.50;86.30;;;;;;4975235;28;20047;-76
2022/06/05 06:16:46;;;;;;;27.58;14.70;;;9.50;86.30;;;;;;4974682;28;20077;-76
2022/06/05 06:19:14;;;;;;;23.88;15.23;;;9.50;86.40;;;;;;4957648;28;20050;-76
2022/06/05 06:21:41;;;;;;;25.90;14.77;;;9.50;86.40;;;;;;4957064;28;20046;-77
2022/06/05 06:24:11;;;;;;;23.52;13.98;;;9.50;86.40;;;;;;4957506;28;20366;-77
2022/06/05 06:26:40;;;;;;;24.80;13.48;;;9.50;86.40;;;;;;4956892;28;20065;-77
2022/06/05 06:29:09;;;;;;;24.10;14.98;;;9.60;86.40;;;;;;4974736;28;20039;-76
2022/06/05 06:31:38;;;;;;;22.33;14.30;;;9.60;86.40;;;;;;4974436;28;20047;-76
2022/06/05 06:34:06;;;;;;;24.00;12.88;;;9.60;86.40;;;;;;4971728;28;20066;-76
2022/06/05 06:36:35;;;;;;;24.92;14.88;;;9.60;86.40;;;;;;4974125;28;20511;-75
2022/06/05 06:39:20;;;;;;;24.52;13.48;;;9.60;86.40;;;;;;4973860;28;20516;-76
2022/06/05 06:41:49;;;;;;;26.15;15.38;;;9.60;86.40;;;;;;4974589;28;20054;-76
2022/06/05 06:44:18;;;;;;;22.23;14.77;;;9.70;86.40;;;;;;4957160;28;20042;-76
2022/06/05 06:46:45;;;;;;;22.48;12.80;;;9.70;86.40;;;;;;4973043;28;20051;-76
2022/06/05 06:49:14;;;;;;;22.05;13.43;;;9.70;86.40;;;;;;4973374;28;20061;-76
2022/06/05 06:51:42;;;;;;;19.25;12.48;;;9.70;86.40;;;;;;4955854;28;20408;-77
2022/06/05 06:54:13;;;;;;;20.98;12.27;;;9.70;86.40;;;;;;4975088;28;20507;-76
2022/06/05 06:56:42;;;;;;;20.20;12.07;;;9.70;86.40;;;;;;4957174;28;20484;-75
2022/06/05 06:59:09;;;;;;;14.93;10.90;;;9.70;86.40;;;;;;4974021;28;20046;-74
2022/06/05 07:01:38;;;;;;;15.75;9.98;;;9.70;86.40;;;;;;4971808;28;20054;-75
2022/06/05 07:04:06;;;;;;;15.07;10.50;;;9.70;86.30;;;;;;4952739;28;20038;-75
2022/06/05 07:06:33;;;;;;;18.15;10.20;;;9.70;86.30;;;;;;4973464;28;20520;-75
2022/06/05 07:09:01;;;;;;;14.80;9.38;;;9.70;86.40;;;;;;4973436;28;20043;-75
2022/06/05 07:11:29;;;;;;;14.85;9.70;;;9.80;86.30;;;;;;4973109;28;20453;-75
2022/06/05 07:13:57;;;;;;;13.90;9.30;;;9.80;86.30;;;;;;4973142;28;20043;-74
2022/06/05 07:16:25;;;;;;;13.90;9.20;;;9.80;86.30;;;;;;4972924;28;20057;-75
2022/06/05 07:18:53;;;;;;;15.65;9.82;;;9.80;86.30;;;;;;4972566;28;20043;-75
2022/06/05 07:21:24;;;;;;;17.98;9.57;;;9.80;86.30;;;;;;4950464;28;20055;-75
2022/06/05 07:23:54;;;;;;;10.32;7.95;;;9.80;86.30;;;;;;4960813;28;20042;-75
2022/06/05 07:26:24;;;;;;;15.02;9.15;;;9.90;86.30;;;;;;4973185;28;20382;-75
2022/06/05 07:28:56;;;;;;;12.00;8.65;;;9.90;86.20;;;;;;4954020;29;20047;-76
2022/06/05 07:31:27;;;;;;;11.75;8.02;;;9.90;86.20;;;;;;4954264;29;20055;-76
2022/06/05 07:33:59;;;;;;;12.15;7.57;;;10.00;86.20;;;;;;4954229;29;20047;-76
2022/06/05 07:36:28;;;;;;;10.30;7.32;;;10.00;86.20;;;;;;4955017;28;20504;-76
2022/06/05 07:38:56;;;;;;;9.60;6.15;;;10.00;86.20;;;;;;4972831;28;20718;-76
2022/06/05 07:41:28;;;;;;;7.13;5.55;;;10.10;86.10;;;;;;4973359;28;20049;-76
2022/06/05 07:43:56;;;;;;;8.02;5.00;;;10.10;86.10;;;;;;4973191;28;20049;-76
2022/06/05 07:46:23;;;;;;;8.45;4.97;;;10.10;86.00;;;;;;4972571;28;20256;-75
2022/06/05 07:48:51;;;;;;;6.95;4.65;;;10.20;85.90;;;;;;4972900;28;20047;-70
2022/06/05 07:54:27;;;;;;;5.05;3.65;;;10.20;85.80;;;;;;4962547;28;20489;-71
2022/06/05 07:56:56;;;;;;;3.72;3.42;;;10.10;85.90;;;;;;4972808;28;20043;-72
2022/06/05 07:59:26;;;;;;;4.43;3.47;;;10.10;85.90;;;;;;4972934;28;20051;-73
2022/06/05 08:01:58;;;;;;;3.83;3.30;;;10.10;85.90;;;;;;4969726;28;20047;-74
2022/06/05 08:04:27;;;;;;;3.47;3.13;;;10.20;85.90;;;;;;4938549;29;20054;-75
2022/06/05 08:06:57;;;;;;;4.00;3.20;;;10.10;85.90;;;;;;4970654;28;20057;-78
2022/06/05 08:09:26;;;;;;;3.50;3.20;;;10.20;86.00;;;;;;4971367;28;20047;-80
2022/06/05 08:11:54;;;;;;;6.10;2.92;;;10.20;85.90;;;;;;4971781;28;20047;-78
2022/06/05 08:14:22;;;;;;;3.55;3.00;;;10.20;85.90;;;;;;4971535;28;20039;-80
2022/06/05 08:16:51;;;;;;;3.65;3.22;;;10.30;85.80;;;;;;4969434;28;20476;-78
2022/06/05 08:19:21;;;;;;;3.88;3.40;;;10.30;85.80;;;;;;4952869;28;20050;-76
2022/06/05 08:21:52;;;;;;;4.38;3.13;;;10.30;85.80;;;;;;4969491;28;20408;-78
2022/06/05 08:24:20;;;;;;;3.47;3.17;;;10.30;85.80;;;;;;4955550;28;20054;-81
2022/06/05 08:26:51;;;;;;;3.67;3.38;;;10.30;85.80;;;;;;4968419;28;20050;-77
2022/06/05 08:29:21;;;;;;;3.70;3.40;;;10.30;85.80;;;;;;4951293;29;20043;-77
2022/06/05 08:31:49;;;;;;;3.63;3.33;;;10.40;85.80;;;;;;4953773;28;20058;-77
2022/06/05 08:34:17;;;;;;;3.35;3.05;;;10.50;85.70;;;;;;4953346;29;20047;-77
2022/06/05 08:36:45;;;;;;;3.90;3.50;;;10.60;85.60;;;;;;4953156;29;20051;-77
2022/06/05 08:42:22;;;;;;;3.80;3.40;;;10.60;85.60;;;;;;4952263;29;20391;-78
2022/06/05 08:45:15;;;;;;;5.05;3.78;;;10.70;85.50;;;;;;4948402;29;20581;-77
2022/06/05 08:47:52;;;;;;;3.60;3.28;;;10.80;85.50;;;;;;4953619;28;20067;-78
2022/06/05 08:50:42;;;;;;;3.67;3.38;;;10.80;85.50;;;;;;4951520;29;20043;-77
2022/06/05 08:53:42;;;;;;;3.92;3.47;;;10.90;85.30;;;;;;4951128;29;20054;-78
2022/06/05 08:56:19;;;;;;;4.35;3.72;;;11.00;85.20;;;;;;4949990;29;20075;-78
2022/06/05 08:58:53;;;;;;;4.75;3.35;;;11.10;85.10;;;;;;4954548;28;20051;-78
2022/06/05 09:01:39;;;;;;;6.03;3.40;;;11.20;84.90;;;;;;4952710;29;20054;-79
2022/06/05 09:04:37;;;;;;;3.55;3.25;;;11.30;84.80;;;;;;4957844;28;20481;-78
2022/06/05 09:07:11;;;;;;;3.55;3.25;;;11.40;84.40;;;;;;4950962;29;20059;-79
2022/06/05 09:09:46;;;;;;;4.47;3.42;;;11.40;84.10;;;;;;4945049;29;20048;-79
2022/06/05 09:12:25;;;;;;;3.85;3.30;;;11.40;83.90;;;;;;4944067;28;20043;-82
2022/06/05 09:15:05;;;;;;;3.65;3.35;;;11.30;83.90;;;;;;4951525;29;20051;-80
2022/06/05 09:17:34;;;;;;;3.92;3.53;;;11.30;83.90;;;;;;4956180;29;20062;-80
2022/06/05 09:20:03;;;;;;;6.10;3.75;;;11.30;84.00;;;;;;4954899;28;20047;-78
2022/06/05 09:22:48;;;;;;;4.22;3.67;;;11.30;83.90;;;;;;4956607;28;20051;-78
2022/06/05 09:25:39;;;;;;;4.60;3.72;;;11.30;83.90;;;;;;4953838;28;20043;-78
2022/06/05 09:28:50;;;;;;;4.35;3.67;;;11.40;84.00;;;;;;4955409;28;20055;-78
2022/06/05 09:31:26;;;;;;;3.53;3.22;;;11.30;83.90;;;;;;4921559;28;20370;-78
2022/06/05 09:33:58;;;;;;;4.50;4.10;;;11.30;83.80;;;;;;4956530;29;20047;-79
2022/06/05 09:36:27;;;;;;;3.97;3.20;;;11.30;83.80;;;;;;4956575;28;20055;-79
2022/06/05 09:39:15;;;;;;;3.97;3.53;;;11.30;83.80;;;;;;4954856;29;20086;-79
2022/06/05 09:41:46;;;;;;;4.18;3.78;;;11.20;83.70;;;;;;4956952;28;20058;-80
2022/06/05 09:44:18;;;;;;;4.85;4.25;;;11.20;83.80;;;;;;4955332;29;20047;-80
2022/06/05 09:46:56;;;;;;;3.88;3.58;;;11.10;83.70;;;;;;4956286;29;20370;-79
2022/06/05 09:49:39;;;;;;;5.85;4.88;;;11.10;83.80;;;;;;4957260;28;20366;-79
2022/06/05 09:52:15;;;;;;;6.63;4.57;;;11.00;83.80;;;;;;4956179;29;20055;-80
2022/06/05 09:55:00;;;;;;;6.05;4.90;;;11.00;83.90;;;;;;4956032;28;20047;-80
2022/06/05 10:00:43;;;;;;;8.88;4.75;;;11.10;84.10;;;;;;4938938;29;20059;-78
2022/06/05 10:03:13;;;;;;;7.18;4.78;;;11.20;84.20;;;;;;4955858;29;20055;-78
2022/06/05 10:05:45;;;;;;;8.38;5.13;;;11.30;84.30;;;;;;4955983;29;20054;-78
2022/06/05 10:08:22;;;;;;;4.72;4.30;;;11.40;84.20;;;;;;4954767;29;20059;-79
2022/06/05 10:10:56;;;;;;;7.40;4.28;;;11.60;83.90;;;;;;4955460;28;20062;-78
2022/06/05 10:13:38;;;;;;;5.40;4.38;;;11.70;83.80;;;;;;4955174;28;20069;-78
2022/06/05 10:16:18;;;;;;;4.47;3.45;;;11.80;83.50;;;;;;4955774;29;20047;-78
2022/06/05 10:18:50;;;;;;;5.88;3.97;;;11.80;83.30;;;;;;4954603;29;20441;-77
2022/06/05 10:21:22;;;;;;;5.20;3.97;;;11.80;83.10;;;;;;4955682;29;20054;-78
2022/06/05 10:24:19;;;;;;;5.15;4.13;;;11.80;83.00;;;;;;4955499;29;20058;-78
2022/06/05 10:26:49;;;;;;;4.32;3.90;;;11.80;83.10;;;;;;4954466;29;20051;-78
2022/06/05 10:29:33;;;;;;;5.50;3.97;;;11.80;83.10;;;;;;4960421;28;20039;-78
2022/06/05 10:32:01;;;;;;;4.20;3.78;;;11.80;83.30;;;;;;4974992;28;20057;-78
2022/06/05 10:34:46;;;;;;;6.47;4.40;;;11.80;83.40;;;;;;4974655;28;20042;-78
2022/06/05 10:37:20;;;;;;;7.75;4.25;;;11.90;83.20;;;;;;4974649;28;20066;-77
2022/06/05 10:39:59;;;;;;;4.78;4.03;;;12.00;83.20;;;;;;4974494;28;20519;-77
2022/06/05 10:42:52;;;;;;;4.70;4.00;;;12.10;83.00;;;;;;4973650;28;20065;-77
2022/06/05 10:45:23;;;;;;;6.03;4.15;;;12.20;82.90;;;;;;4973647;28;20061;-77
2022/06/05 10:47:56;;;;;;;5.88;4.03;;;12.20;82.90;;;;;;4972945;28;20544;-78
2022/06/05 10:50:43;;;;;;;;;;;12.20;82.80;;;;;;4957675;28;20047;-77
2022/06/05 10:53:27;;;;;;;4.47;4.07;;;12.20;82.70;;;;;;4973412;28;19944;-78
2022/06/05 10:56:12;;;;;;;5.60;3.78;;;12.20;82.60;;;;;;4974370;28;20039;-77
2022/06/05 10:59:10;;;;;;;8.75;3.97;;;12.20;82.60;;;;;;4976798;28;20511;-77
2022/06/05 11:02:22;;;;;;;7.07;3.78;;;12.10;82.60;;;;;;4975601;28;20050;-78
2022/06/05 11:05:17;;;;;;;5.63;4.03;;;12.00;82.60;;;;;;4898309;29;20052;-78
2022/06/05 11:07:51;;;;;;;6.28;4.10;;;11.90;82.70;;;;;;4913275;29;20414;-77
2022/06/05 11:13:45;;;;;;;7.03;4.50;;;11.60;82.90;;;;;;4914103;29;20052;-78
2022/06/05 11:16:28;;;;;;;6.80;4.63;;;11.60;83.00;;;;;;4914420;29;20056;-77
2022/06/05 11:19:14;;;;;;;8.18;5.07;;;11.50;83.20;;;;;;4914372;29;20156;-78
2022/06/05 11:21:44;;;;;;;9.38;5.10;;;11.40;83.30;;;;;;4913813;29;20048;-77
2022/06/05 11:24:24;;;;;;;5.18;4.68;;;11.30;83.50;;;;;;4914272;29;20067;-77
2022/06/05 11:27:09;;;;;;;6.40;4.70;;;11.30;83.60;;;;;;4913695;29;20064;-77
2022/06/05 11:30:12;;;;;;;6.93;4.97;;;11.30;83.70;;;;;;4913757;29;20080;-76
2022/06/05 11:32:56;;;;;;;8.32;5.47;;;11.30;83.80;;;;;;4903599;29;20063;-76
2022/06/05 11:35:46;;;;;;;7.43;5.40;;;11.30;83.90;;;;;;4927961;28;20063;-76
2022/06/05 11:38:38;;;;;;;7.95;5.68;;;11.30;84.00;;;;;;4956202;28;20511;-76
2022/06/05 11:41:34;;;;;;;7.35;5.00;;;11.30;84.10;;;;;;4973030;28;20058;-77
2022/06/05 11:44:27;;;;;;;5.07;4.57;;;11.30;84.10;;;;;;4973121;28;20042;-76
2022/06/05 11:47:02;;;;;;;6.53;4.70;;;11.30;84.10;;;;;;4973285;28;20042;-76
2022/06/05 11:49:38;;;;;;;7.95;5.03;;;11.30;84.00;;;;;;4973464;28;20046;-76
2022/06/05 11:52:15;;;;;;;6.93;5.15;;;11.30;84.00;;;;;;4973195;28;20046;-76
2022/06/05 11:54:50;;;;;;;8.00;5.57;;;11.30;84.10;;;;;;4956517;28;20492;-76
2022/06/05 11:57:59;;;;;;;9.90;4.97;;;11.40;84.20;;;;;;4973550;28;20046;-76
2022/06/05 12:00:37;;;;;;;5.82;5.15;;;11.40;84.20;;;;;;4973047;28;20057;-77
2022/06/05 12:03:26;;;;;;;6.63;5.05;;;11.50;84.30;;;;;;4956143;28;20047;-78
2022/06/05 12:06:32;;;;;;;9.05;4.88;;;11.60;84.30;;;;;;4939939;28;20515;-78
2022/06/05 12:09:09;;;;;;;9.48;4.63;;;11.60;84.20;;;;;;4941124;28;20055;-78
2022/06/05 12:12:13;;;;;;;8.27;4.72;;;11.70;84.20;;;;;;4956187;28;20059;-78
2022/06/05 12:14:50;;;;;;;6.68;4.95;;;11.70;84.10;;;;;;4973287;28;20392;-78
2022/06/05 12:17:28;;;;;;;5.90;4.63;;;11.70;84.10;;;;;;4972938;28;20061;-78
2022/06/05 12:20:11;;;;;;;8.82;4.95;;;11.70;84.20;;;;;;4956009;28;20047;-78
2022/06/05 12:23:13;;;;;;;6.82;4.80;;;11.70;84.10;;;;;;4972933;28;20050;-78
2022/06/05 12:26:34;;;;;;;5.85;4.03;;;11.80;84.10;;;;;;4973209;28;20481;-78
2022/06/05 12:29:11;;;;;;;5.30;4.28;;;11.80;84.20;;;;;;4913233;29;20048;-78
2022/06/05 12:32:06;;;;;;;7.93;4.40;;;11.80;84.20;;;;;;4913552;29;20051;-77
2022/06/05 12:35:00;;;;;;;5.82;4.35;;;11.80;84.10;;;;;;4896951;29;20052;-78
2022/06/05 12:37:44;;;;;;;7.70;4.35;;;11.80;84.10;;;;;;4912932;29;20067;-77
2022/06/05 12:40:28;;;;;;;5.28;4.65;;;11.80;84.10;;;;;;4913065;29;20048;-78
2022/06/05 12:43:10;;;;;;;6.90;5.10;;;11.80;84.20;;;;;;4913570;29;20056;-78
2022/06/05 12:45:43;;;;;;;8.80;4.97;;;11.80;84.20;;;;;;4913063;29;20059;-76
2022/06/05 12:48:24;;;;;;;6.00;4.70;;;11.80;84.20;;;;;;4913637;29;20056;-76
2022/06/05 12:51:21;;;;;;;6.03;5.45;;;11.80;84.20;;;;;;4900815;29;20295;-76
2022/06/05 12:54:28;;;;;;;5.82;5.22;;;11.90;84.20;;;;;;4916845;29;20052;-76
2022/06/05 12:57:24;;;;;;;6.68;5.32;;;11.80;84.20;;;;;;4906141;29;20052;-76
2022/06/05 13:00:26;;;;;;;7.32;5.72;;;11.90;84.10;;;;;;4916828;29;20067;-76
2022/06/05 13:03:16;;;;;;;7.75;6.07;;;11.80;84.10;;;;;;4930044;28;20066;-76
2022/06/05 13:05:56;;;;;;;6.25;5.65;;;11.80;84.10;;;;;;4929078;28;20047;-77
2022/06/05 13:08:42;;;;;;;9.10;6.43;;;11.80;84.20;;;;;;4958895;28;20066;-76
2022/06/05 13:11:23;;;;;;;8.25;6.57;;;11.80;84.20;;;;;;4959441;28;20047;-76
2022/06/05 13:14:20;;;;;;;11.27;6.75;;;11.80;84.20;;;;;;4975847;28;20054;-77
2022/06/05 13:16:56;;;;;;;8.15;6.00;;;11.80;84.30;;;;;;4976165;28;20510;-77
2022/06/05 13:19:26;;;;;;;13.95;7.38;;;11.90;84.30;;;;;;4975770;28;20051;-77
2022/06/05 13:22:00;;;;;;;9.95;6.85;;;11.90;84.30;;;;;;4975869;28;20046;-78
2022/06/05 13:24:37;;;;;;;10.27;7.38;;;12.00;84.40;;;;;;4975512;28;20382;-78
2022/06/05 13:27:31;;;;;;;13.48;7.72;;;12.00;84.30;;;;;;4975713;28;20051;-78
2022/06/05 13:30:03;;;;;;;10.05;7.28;;;12.10;84.40;;;;;;4958815;28;20051;-78
2022/06/05 13:32:48;;;;;;;10.68;6.65;;;12.20;84.20;;;;;;4975796;28;20046;-78
2022/06/05 13:35:53;;;;;;;8.20;7.00;;;12.30;84.00;;;;;;4956575;29;20055;-78
2022/06/05 13:38:45;;;;;;;7.60;6.68;;;12.30;83.80;;;;;;4939647;29;20054;-78
2022/06/05 13:41:24;;;;;;;11.85;6.53;;;12.30;83.80;;;;;;4956416;29;20047;-78
2022/06/05 13:44:20;;;;;;;9.82;6.22;;;12.40;83.80;;;;;;4939542;29;20473;-77